Terminal Aerodrome Forecast
Issued by NWS

Home | Current Version | Previous Version | Text Only | Print | Product List | Glossary On
Versions: 1 2 3 4 5 6 7 8 9 10 11 12 13 14 15 16 17 18 19 20
000
FTUS43 KGRB 250159 AAA
TAFMTW
TAF AMD
KMTW 250159Z 2502/2524 10014G24KT 6SM -RA BR OVC010 WS020/13045KT
      TEMPO 2502/2506 3SM -SNPL BR OVC007
     FM250600 13014G23KT 2SM -RASN BR OVC008 WS020/13045KT
     FM250900 20013G24KT 3SM -RASN BR OVC008
     FM251000 23015G30KT 6SM -RASN OVC015
     FM251400 25022G35KT P6SM SCT025
     FM251900 25020G34KT P6SM SKC
     FM252200 24016G26KT P6SM SKC=

USA.gov is the U.S. government's official web portal to all federal, state and local government web resources and services.